Aérodrome :
LOGIN :

S'inscrire | Disclaimer

   EN    FR    IT 

 










Légende :    VFR   VFR Marginal   IFR   IFR Intensif   IFR Très Intensif
Visi : 
Plafond : 
>= 8 km
>= 3000ft
5 à 8 km
1000 à 3000 ft
1500m à 5 km
500 à 1000 ft
800 à 1500m
200 à 500 ft
< 800m
< 200 ft
Symboles :   Orages  Brouillard  Fortes neiges  Fortes précipitations  Vent > 20 kt
SIGMETs :   Divers  Orages  Givrage  Turbulence  Onde Orograph.  Cendres Volcan.






- Altitude de l'aérodrome : 357 ft
- Code IATA : TUF


LFOT - Tours

DERNIER METAR :
  • 020700Z AUTO 04005KT 360V080 CAVOK 04/M00 Q1017 NOSIG

METARs EXPIRÉS :
  • 020630Z AUTO VRB03KT CAVOK 03/M01 Q1016 NOSIG
  • 020600Z AUTO 02004KT CAVOK 02/M01 Q1016 NOSIG
  • 020530Z AUTO 01004KT 340V050 CAVOK 02/M02 Q1016 NOSIG
  • 020500Z AUTO VRB01KT CAVOK 02/M02 Q1016 NOSIG
  • 020430Z AUTO 02004KT 340V050 CAVOK 02/M02 Q1016 NOSIG

TAF TAF LFOT
Valide du 02 à 06h jusqu'au 03 à 06h UTC


020500Z 0206/0306 02006KT CAVOK
BECMG 0212/0215 35006KT
BECMG 0301/0303 6000 SCT005
TEMPO 0303/0306 2000 BR BKN002



MET'MAP, la Météo Aéronautique d'un coup d'oeil ! - Copyright ORBIFLY Décembre 2007 - Disclaimer

ORBIFLY MET'MAP TEAM :

Programmation & Développement : Alexandra Zaïnal
Sur une idée originale de : Baudouin d'Aumeries
Assistance à la programmation : Marc-Olivier Méhu
Soutien technique & logistique : Manuel Goepfert

Contact : metmap@orbifly.com




SOURCES & CREDITS :

   NOAA